Time;durP1;ratioP1;P1;durP2;ratioP2;P2;SDS_P1;SDS_P2;PMS_P1;PMS_P2;Temp;Humidity;BMP_temperature;BMP_pressure;BME280_temperature;BME280_humidity;BME280_pressure;Samples;Min_cycle;Max_cycle;Signal;HPM_P1;HPM_P2
2022/01/27 00:00:04;;;;;;;18.53;9.83;;;;;;;-0.44;100.00;95415.59;5088681;28;20224;-78
2022/01/27 00:02:45;;;;;;;18.63;9.70;;;;;;;-0.52;100.00;95413.69;5084448;28;20213;-77
2022/01/27 00:05:17;;;;;;;19.47;9.77;;;;;;;-0.43;100.00;95407.00;5083764;28;20534;-78
2022/01/27 00:07:57;;;;;;;15.57;9.00;;;;;;;-0.40;100.00;95411.81;5072049;28;20194;-82
2022/01/27 00:10:43;;;;;;;17.37;9.17;;;;;;;-0.36;100.00;95405.50;5079046;28;20764;-84
2022/01/27 00:13:14;;;;;;;21.20;10.03;;;;;;;-0.36;100.00;95410.63;5077441;28;20193;-86
2022/01/27 00:15:44;;;;;;;18.83;9.13;;;;;;;-0.31;100.00;95409.28;5085769;28;20200;-84
2022/01/27 00:18:17;;;;;;;14.83;8.20;;;;;;;-0.44;100.00;95403.63;5074048;28;20224;-85
2022/01/27 00:20:46;;;;;;;14.63;8.33;;;;;;;-0.50;100.00;95405.91;5086287;28;20284;-86
2022/01/27 00:23:14;;;;;;;13.50;7.60;;;;;;;-0.57;100.00;95406.41;5071953;28;20208;-84
2022/01/27 00:26:33;;;;;;;13.50;8.03;;;;;;;-0.53;100.00;95401.06;5068083;28;20212;-86
2022/01/27 00:29:04;;;;;;;16.33;8.40;;;;;;;-0.50;100.00;95403.34;5072352;28;20229;-87
2022/01/27 00:31:32;;;;;;;16.40;8.47;;;;;;;-0.42;100.00;95393.28;5072727;28;20197;-85
2022/01/27 00:34:04;;;;;;;16.23;8.33;;;;;;;-0.39;100.00;95403.22;5071939;28;20596;-86
2022/01/27 00:36:32;;;;;;;14.77;8.53;;;;;;;-0.41;100.00;95403.38;5079119;28;20738;-84
2022/01/27 00:39:06;;;;;;;21.13;10.10;;;;;;;-0.32;100.00;95392.38;5073082;28;20228;-84
2022/01/27 00:41:33;;;;;;;19.47;9.63;;;;;;;-0.19;100.00;95404.84;5091944;28;20181;-83
2022/01/27 00:44:05;;;;;;;18.87;9.17;;;;;;;-0.17;100.00;95408.06;5092549;28;20640;-82
2022/01/27 00:46:36;;;;;;;17.27;8.93;;;;;;;-0.17;100.00;95403.78;5074575;28;20252;-84
2022/01/27 00:49:11;;;;;;;15.57;8.20;;;;;;;-0.27;100.00;95390.22;5072208;28;20189;-85
2022/01/27 00:51:46;;;;;;;13.17;7.77;;;;;;;-0.35;100.00;95402.03;5078419;28;20349;-83
2022/01/27 00:54:18;;;;;;;12.03;7.27;;;;;;;-0.45;100.00;95401.19;5090206;28;20747;-83
2022/01/27 00:56:52;;;;;;;11.33;6.63;;;;;;;-0.49;100.00;95390.44;5086767;28;20229;-82
2022/01/27 00:59:34;;;;;;;11.63;6.73;;;;;;;-0.46;100.00;95402.94;5069441;28;20645;-84
2022/01/27 01:02:13;;;;;;;12.20;6.90;;;;;;;-0.49;100.00;95410.06;5050348;28;20233;-83
2022/01/27 01:04:45;;;;;;;10.73;6.20;;;;;;;-0.49;100.00;95399.88;5068032;28;20688;-83
2022/01/27 01:07:14;;;;;;;9.93;5.83;;;;;;;-0.51;100.00;95401.72;5080767;28;20572;-81
2022/01/27 01:15:17;;;;;;;13.80;7.07;;;;;;;-0.54;100.00;95382.38;5074617;28;20205;-83
2022/01/27 01:31:45;;;;;;;10.50;5.80;;;;;;;-0.59;100.00;95376.88;5051758;28;20240;-82
2022/01/27 01:34:18;;;;;;;11.17;6.73;;;;;;;-0.46;100.00;95387.63;5060879;28;20233;-82
2022/01/27 01:36:56;;;;;;;14.47;7.80;;;;;;;-0.36;100.00;95393.56;5073901;28;20228;-81
2022/01/27 01:39:26;;;;;;;14.90;8.00;;;;;;;-0.24;100.00;95387.41;5063861;28;20220;-82
2022/01/27 01:41:57;;;;;;;17.33;8.87;;;;;;;-0.14;100.00;95383.06;5057442;28;20705;-81
2022/01/27 01:44:26;;;;;;;16.83;8.60;;;;;;;-0.19;100.00;95366.53;5069820;28;20232;-82
2022/01/27 01:46:57;;;;;;;16.70;9.97;;;;;;;-0.05;100.00;95378.91;5063446;28;20688;-82
2022/01/27 01:49:27;;;;;;;20.77;10.70;;;;;;;-0.03;100.00;95379.59;5056801;28;20198;-82
2022/01/27 01:51:58;;;;;;;19.63;10.53;;;;;;;0.02;100.00;95371.50;5056975;28;20205;-82
2022/01/27 01:54:26;;;;;;;19.20;10.13;;;;;;;0.02;99.67;95363.84;5069498;28;20228;-79
2022/01/27 01:56:57;;;;;;;23.27;10.73;;;;;;;0.05;99.92;95373.81;5056375;28;20263;-78
2022/01/27 01:59:26;;;;;;;20.80;10.30;;;;;;;0.11;98.97;95373.25;5061405;28;20229;-78
2022/01/27 02:01:57;;;;;;;23.70;10.53;;;;;;;0.07;98.96;95369.34;5062049;28;20237;-80
2022/01/27 02:04:25;;;;;;;17.80;9.10;;;;;;;0.07;99.24;95361.69;5062577;28;20198;-79
2022/01/27 02:06:57;;;;;;;18.37;9.87;;;;;;;0.09;98.87;95358.03;5060939;28;20396;-79
2022/01/27 02:09:35;;;;;;;17.33;9.47;;;;;;;0.07;99.48;95365.06;5049728;28;20182;-82
2022/01/27 02:20:35;;;;;;;13.90;7.73;;;;;;;-0.28;100.00;95340.06;5033847;28;20985;-80
2022/01/27 02:23:08;;;;;;;11.47;7.33;;;;;;;-0.14;100.00;95349.06;5062380;28;20198;-81
2022/01/27 02:25:38;;;;;;;11.80;6.33;;;;;;;-0.25;100.00;95342.34;5062994;28;20206;-82
2022/01/27 02:28:06;;;;;;;8.90;5.93;;;;;;;-0.33;100.00;95349.09;5063171;28;20313;-82
2022/01/27 02:30:35;;;;;;;6.97;4.53;;;;;;;-0.37;100.00;95355.38;5063711;28;20201;-82
2022/01/27 02:33:03;;;;;;;7.83;4.70;;;;;;;-0.39;100.00;95352.16;5070636;28;20679;-82
2022/01/27 02:35:35;;;;;;;6.77;5.00;;;;;;;-0.35;100.00;95349.22;5063839;28;20348;-81
2022/01/27 02:38:32;;;;;;;8.53;5.33;;;;;;;-0.36;100.00;95347.59;5051030;28;20218;-82
2022/01/27 02:41:04;;;;;;;5.77;4.40;;;;;;;-0.44;100.00;95334.72;5058753;28;20283;-82
2022/01/27 02:43:32;;;;;;;7.30;4.90;;;;;;;-0.36;100.00;95337.41;5071580;28;20224;-82
2022/01/27 02:46:06;;;;;;;6.30;4.03;;;;;;;-0.45;100.00;95342.50;5066242;28;20285;-82
2022/01/27 02:48:34;;;;;;;5.20;3.93;;;;;;;-0.50;100.00;95334.44;5070932;28;20205;-81
2022/01/27 02:51:05;;;;;;;5.80;3.80;;;;;;;-0.52;100.00;95339.69;5061769;28;20581;-81
2022/01/27 02:53:34;;;;;;;5.83;4.70;;;;;;;-0.42;100.00;95345.59;5054094;28;20198;-81
2022/01/27 02:56:08;;;;;;;7.30;4.70;;;;;;;-0.42;100.00;95343.03;5067825;28;20686;-82
2022/01/27 02:58:36;;;;;;;6.23;4.50;;;;;;;-0.44;100.00;95342.38;5054219;28;20222;-82
2022/01/27 03:01:05;;;;;;;6.63;4.30;;;;;;;-0.53;100.00;95353.38;5054205;28;20198;-83
2022/01/27 03:03:33;;;;;;;9.37;5.10;;;;;;;-0.40;100.00;95348.00;5055148;28;20201;-82
2022/01/27 03:06:04;;;;;;;9.00;4.73;;;;;;;-0.43;100.00;95346.50;5074388;28;20181;-82
2022/01/27 03:08:32;;;;;;;8.97;4.73;;;;;;;-0.49;100.00;95349.59;5065541;28;20200;-83
2022/01/27 03:11:08;;;;;;;7.90;4.90;;;;;;;-0.53;100.00;95348.28;5054201;28;20201;-82
2022/01/27 03:13:36;;;;;;;8.13;5.00;;;;;;;-0.50;100.00;95340.34;5056355;28;21158;-83
2022/01/27 03:16:08;;;;;;;11.67;6.90;;;;;;;-0.52;100.00;95333.78;5074079;28;20228;-83
2022/01/27 03:18:42;;;;;;;12.70;7.20;;;;;;;-0.35;100.00;95335.66;5054004;28;20280;-83
2022/01/27 03:21:12;;;;;;;11.93;6.83;;;;;;;-0.32;100.00;95338.75;5056413;28;20189;-79
2022/01/27 03:23:40;;;;;;;11.07;6.13;;;;;;;-0.37;100.00;95330.66;5070906;28;20274;-79
2022/01/27 03:26:09;;;;;;;8.03;5.30;;;;;;;-0.38;100.00;95339.28;5054317;28;20399;-79
2022/01/27 03:28:38;;;;;;;8.30;4.83;;;;;;;-0.33;100.00;95344.78;5052972;28;20661;-78
2022/01/27 03:31:06;;;;;;;10.13;5.30;;;;;;;-0.30;100.00;95343.72;5059084;28;20214;-78
2022/01/27 03:33:42;;;;;;;7.33;4.87;;;;;;;-0.36;100.00;95341.69;5069267;28;20283;-78
2022/01/27 03:36:13;;;;;;;6.87;4.20;;;;;;;-0.43;100.00;95343.97;5057609;28;20284;-78
2022/01/27 03:38:41;;;;;;;6.93;4.47;;;;;;;-0.50;100.00;95348.00;5051739;28;20228;-79
2022/01/27 03:41:11;;;;;;;7.97;5.10;;;;;;;-0.49;100.00;95344.50;5055248;28;20193;-82
2022/01/27 03:43:41;;;;;;;8.17;5.53;;;;;;;-0.50;100.00;95345.47;5062307;28;20213;-79
2022/01/27 03:46:10;;;;;;;9.40;5.70;;;;;;;-0.42;100.00;95350.69;5057581;28;20198;-79
2022/01/27 03:48:39;;;;;;;9.73;6.17;;;;;;;-0.45;100.00;95345.84;5054192;28;20194;-78
2022/01/27 03:51:08;;;;;;;8.73;5.93;;;;;;;-0.46;100.00;95348.56;5053370;28;20317;-78
2022/01/27 03:53:38;;;;;;;10.20;5.70;;;;;;;-0.33;100.00;95349.91;5050336;28;20677;-79
2022/01/27 03:56:07;;;;;;;7.77;5.20;;;;;;;-0.39;100.00;95345.31;5052472;28;20302;-78
2022/01/27 03:58:42;;;;;;;7.57;5.40;;;;;;;-0.31;100.00;95352.28;5069012;28;20746;-79
2022/01/27 04:01:10;;;;;;;7.97;5.43;;;;;;;-0.48;100.00;95341.00;5060461;28;20216;-80
2022/01/27 04:03:40;;;;;;;7.23;4.70;;;;;;;-0.39;100.00;95334.31;5068791;28;20557;-80
2022/01/27 04:06:19;;;;;;;6.73;4.90;;;;;;;-0.19;100.00;95362.25;5060194;28;20653;-81
2022/01/27 04:08:50;;;;;;;8.63;6.00;;;;;;;-0.19;100.00;95358.88;5067190;28;21504;-79
2022/01/27 04:11:18;;;;;;;10.27;6.27;;;;;;;-0.20;100.00;95358.06;5058845;28;20293;-79
2022/01/27 04:13:46;;;;;;;10.37;6.10;;;;;;;-0.36;100.00;95362.94;5067979;28;20211;-79
2022/01/27 04:16:14;;;;;;;10.77;6.30;;;;;;;-0.38;100.00;95361.44;5074662;28;20212;-79
2022/01/27 04:18:45;;;;;;;11.07;6.10;;;;;;;-0.37;100.00;95368.97;5088547;28;20605;-78
2022/01/27 04:21:14;;;;;;;8.77;5.90;;;;;;;-0.39;100.00;95365.75;5079473;28;20288;-79
2022/01/27 04:23:42;;;;;;;8.70;5.77;;;;;;;-0.41;100.00;95361.72;5075533;28;20244;-79
2022/01/27 04:26:13;;;;;;;7.83;5.63;;;;;;;-0.37;100.00;95363.03;5089695;28;20663;-79
2022/01/27 04:28:42;;;;;;;9.67;6.43;;;;;;;-0.28;100.00;95367.34;5082297;28;20200;-79
2022/01/27 04:31:11;;;;;;;19.40;9.00;;;;;;;-0.30;100.00;95364.94;5083895;28;20593;-80
2022/01/27 04:33:39;;;;;;;10.13;6.30;;;;;;;-0.42;100.00;95366.00;5083606;28;20298;-76
2022/01/27 04:36:14;;;;;;;8.13;6.00;;;;;;;-0.52;100.00;95367.75;5089169;28;20232;-71
2022/01/27 04:38:47;;;;;;;9.40;5.90;;;;;;;-0.55;100.00;95367.22;5090518;28;20244;-71
2022/01/27 04:41:24;;;;;;;8.37;5.57;;;;;;;-0.52;100.00;95356.75;5090294;28;20643;-70
2022/01/27 04:43:59;;;;;;;9.10;5.97;;;;;;;-0.33;100.00;95369.50;5089164;28;20200;-71
2022/01/27 04:46:34;;;;;;;9.13;5.80;;;;;;;-0.41;100.00;95372.75;5089757;28;20196;-71
2022/01/27 04:49:05;;;;;;;8.30;5.77;;;;;;;-0.34;100.00;95373.81;5089865;28;20203;-71
2022/01/27 04:51:33;;;;;;;9.67;5.67;;;;;;;-0.23;100.00;95376.22;5088784;28;20723;-71
2022/01/27 04:54:05;;;;;;;8.07;5.30;;;;;;;-0.14;100.00;95377.16;5085522;28;20566;-71
2022/01/27 04:56:37;;;;;;;16.00;8.17;;;;;;;-0.25;100.00;95390.06;5084289;28;20240;-72
2022/01/27 04:59:10;;;;;;;14.33;8.33;;;;;;;-0.37;100.00;95380.91;5065803;28;20703;-71
2022/01/27 05:01:43;;;;;;;18.00;9.00;;;;;;;-0.40;100.00;95386.28;5085810;28;20668;-71
2022/01/27 05:04:14;;;;;;;14.40;8.53;;;;;;;-0.36;100.00;95380.78;5077016;28;20655;-71
2022/01/27 05:06:42;;;;;;;13.43;8.13;;;;;;;-0.32;100.00;95389.00;5088888;28;20565;-71
2022/01/27 05:09:09;;;;;;;11.30;7.37;;;;;;;-0.30;100.00;95393.03;5075429;28;20205;-70
2022/01/27 05:11:46;;;;;;;9.93;6.50;;;;;;;-0.28;100.00;95395.44;5087121;28;20204;-70
2022/01/27 05:14:18;;;;;;;12.77;7.43;;;;;;;-0.34;100.00;95394.22;5082007;28;20262;-71
2022/01/27 05:16:45;;;;;;;11.60;7.70;;;;;;;-0.37;100.00;95393.69;5063058;28;20679;-71
2022/01/27 05:19:13;;;;;;;16.20;9.47;;;;;;;-0.28;100.00;95403.09;5061357;28;20304;-70
2022/01/27 05:21:41;;;;;;;17.50;10.53;;;;;;;-0.37;100.00;95406.44;5063279;28;20205;-72
2022/01/27 05:24:11;;;;;;;16.90;9.50;;;;;;;-0.47;100.00;95398.78;5066055;28;20212;-74
2022/01/27 05:26:48;;;;;;;16.60;9.87;;;;;;;-0.45;100.00;95402.00;5063695;28;20206;-72
2022/01/27 05:29:15;;;;;;;11.73;8.27;;;;;;;-0.33;100.00;95402.69;5058903;28;20205;-71
2022/01/27 05:31:43;;;;;;;13.23;8.20;;;;;;;-0.37;100.00;95407.25;5062793;28;20259;-72
2022/01/27 05:34:10;;;;;;;13.53;8.07;;;;;;;-0.31;100.00;95401.63;5063652;28;20267;-71
2022/01/27 05:39:25;;;;;;;15.90;8.83;;;;;;;-0.43;100.00;95405.22;5061828;28;20233;-71
2022/01/27 05:41:54;;;;;;;14.37;9.07;;;;;;;-0.41;100.00;95411.03;5062988;28;20208;-72
2022/01/27 05:44:22;;;;;;;12.50;8.30;;;;;;;-0.51;100.00;95410.19;5063734;28;20209;-71
2022/01/27 05:46:49;;;;;;;13.97;9.20;;;;;;;-0.45;100.00;95416.50;5063054;28;20208;-71
2022/01/27 05:49:16;;;;;;;12.60;8.20;;;;;;;-0.48;100.00;95412.47;5064710;28;20742;-70
2022/01/27 05:51:43;;;;;;;13.60;8.43;;;;;;;-0.41;100.00;95407.66;5060661;28;20205;-71
2022/01/27 05:54:12;;;;;;;14.37;8.17;;;;;;;-0.46;100.00;95409.81;5060831;28;20673;-71
2022/01/27 05:56:41;;;;;;;12.63;7.57;;;;;;;-0.49;100.00;95421.06;5063156;28;20596;-72
2022/01/27 05:59:12;;;;;;;15.10;8.57;;;;;;;-0.47;100.00;95421.75;5062075;28;20225;-70
2022/01/27 06:01:40;;;;;;;13.23;8.70;;;;;;;-0.43;100.00;95414.66;5061251;28;20209;-71
2022/01/27 06:04:08;;;;;;;15.33;9.63;;;;;;;-0.50;100.00;95424.56;5061364;28;20721;-71
2022/01/27 06:06:36;;;;;;;15.37;9.70;;;;;;;-0.52;100.00;95423.09;5064486;28;20210;-77
2022/01/27 06:09:05;;;;;;;14.83;9.23;;;;;;;-0.52;100.00;95428.22;5063392;28;20225;-72
2022/01/27 06:11:33;;;;;;;37.80;19.10;;;;;;;-0.43;100.00;95437.63;5061441;28;20205;-72
2022/01/27 06:14:01;;;;;;;15.30;9.03;;;;;;;-0.30;100.00;95428.78;5061827;28;20258;-71
2022/01/27 06:16:31;;;;;;;16.73;9.67;;;;;;;-0.23;100.00;95429.84;5071896;28;20209;-72
2022/01/27 06:18:59;;;;;;;15.87;9.23;;;;;;;-0.33;100.00;95436.69;5074774;28;20720;-71
2022/01/27 06:21:27;;;;;;;13.13;8.50;;;;;;;-0.48;100.00;95434.63;5070291;28;20201;-71
2022/01/27 06:23:55;;;;;;;17.47;9.50;;;;;;;-0.45;100.00;95442.84;5072423;28;20208;-71
2022/01/27 06:26:24;;;;;;;13.50;8.10;;;;;;;-0.45;100.00;95436.94;5074111;28;20587;-73
2022/01/27 06:28:50;;;;;;;17.70;8.90;;;;;;;-0.50;100.00;95436.53;5074760;28;20201;-75
2022/01/27 06:31:17;;;;;;;13.47;8.13;;;;;;;-0.49;100.00;95440.69;5074733;28;20288;-73
2022/01/27 06:33:46;;;;;;;13.07;7.70;;;;;;;-0.49;100.00;95450.91;5072296;28;20239;-72
2022/01/27 06:36:14;;;;;;;15.80;9.60;;;;;;;-0.50;100.00;95446.75;5073164;28;20213;-72
2022/01/27 06:38:42;;;;;;;16.10;9.50;;;;;;;-0.45;100.00;95447.97;5069689;28;20213;-74
2022/01/27 06:41:14;;;;;;;13.23;8.20;;;;;;;-0.33;100.00;95453.75;5062252;28;20217;-73
2022/01/27 06:43:43;;;;;;;15.27;9.07;;;;;;;-0.45;100.00;95435.19;5059824;28;20233;-73
2022/01/27 06:46:14;;;;;;;19.17;10.83;;;;;;;-0.27;100.00;95451.50;5086257;28;20208;-71
2022/01/27 06:48:42;;;;;;;20.17;10.00;;;;;;;-0.37;100.00;95448.09;5083461;28;20211;-71
2022/01/27 06:51:14;;;;;;;17.37;10.10;;;;;;;-0.28;100.00;95444.75;5088008;28;20211;-77
2022/01/27 06:53:42;;;;;;;16.07;9.10;;;;;;;-0.28;100.00;95449.06;5087642;28;20283;-71
2022/01/27 06:56:11;;;;;;;13.50;8.57;;;;;;;-0.32;100.00;95445.97;5088401;28;20287;-71
2022/01/27 06:58:41;;;;;;;15.43;8.83;;;;;;;-0.33;100.00;95441.00;5087990;28;20208;-72
2022/01/27 07:01:08;;;;;;;17.83;10.27;;;;;;;-0.17;100.00;95447.19;5088666;28;20222;-71
2022/01/27 07:03:44;;;;;;;19.57;11.63;;;;;;;-0.17;100.00;95441.28;5088316;28;20205;-72
2022/01/27 07:06:15;;;;;;;20.10;12.03;;;;;;;-0.22;100.00;95440.88;5088152;28;20204;-71
2022/01/27 07:08:43;;;;;;;22.23;11.57;;;;;;;-0.30;100.00;95444.09;5088380;28;20286;-72
2022/01/27 07:11:14;;;;;;;17.20;10.20;;;;;;;-0.23;100.00;95450.25;5087967;28;20200;-71
2022/01/27 07:13:42;;;;;;;20.03;11.97;;;;;;;-0.02;100.00;95443.31;5088697;28;20649;-73
2022/01/27 07:16:11;;;;;;;18.13;11.10;;;;;;;-0.07;100.00;95447.22;5087415;28;20243;-71
2022/01/27 07:18:40;;;;;;;19.10;10.93;;;;;;;-0.10;100.00;95455.13;5087027;28;20275;-72
2022/01/27 07:21:09;;;;;;;18.70;10.63;;;;;;;-0.12;100.00;95449.34;5088585;28;20244;-72
2022/01/27 07:23:40;;;;;;;18.17;11.63;;;;;;;-0.07;100.00;95450.56;5088166;28;20266;-72
2022/01/27 07:26:09;;;;;;;21.07;12.40;;;;;;;-0.15;100.00;95460.66;5089045;28;20200;-71
2022/01/27 07:28:39;;;;;;;22.23;11.40;;;;;;;0.02;100.00;95460.91;5088235;28;20704;-72
2022/01/27 07:31:08;;;;;;;20.47;11.60;;;;;;;-0.08;100.00;95459.16;5088347;28;20193;-73
2022/01/27 07:33:36;;;;;;;19.90;10.63;;;;;;;-0.06;100.00;95461.59;5087841;28;20247;-72
2022/01/27 07:36:05;;;;;;;22.03;11.30;;;;;;;-0.05;100.00;95452.97;5057515;28;20207;-81
2022/01/27 07:38:34;;;;;;;20.70;10.63;;;;;;;0.12;100.00;95459.97;5071859;28;20200;-77
2022/01/27 07:41:04;;;;;;;17.73;10.03;;;;;;;0.19;100.00;95453.41;5071824;28;20224;-78
2022/01/27 07:43:31;;;;;;;16.00;9.70;;;;;;;0.20;100.00;95464.44;5084399;28;20246;-78
2022/01/27 07:46:00;;;;;;;20.53;12.30;;;;;;;0.13;100.00;95478.66;5078706;28;20258;-79
2022/01/27 07:48:27;;;;;;;23.53;11.47;;;;;;;0.21;100.00;95463.47;5073518;28;20244;-75
2022/01/27 07:50:55;;;;;;;16.90;10.17;;;;;;;0.02;100.00;95468.59;5074498;28;20193;-77
2022/01/27 07:53:23;;;;;;;22.47;12.07;;;;;;;-0.08;100.00;95473.69;5073784;28;20193;-76
2022/01/27 07:55:53;;;;;;;22.80;11.23;;;;;;;-0.01;100.00;95472.22;5073378;28;20209;-76
2022/01/27 07:58:23;;;;;;;21.70;12.77;;;;;;;0.10;100.00;95474.63;5073420;28;20227;-76
2022/01/27 08:00:51;;;;;;;23.03;13.13;;;;;;;0.10;100.00;95474.63;5074545;28;20263;-75
2022/01/27 08:03:18;;;;;;;24.30;13.13;;;;;;;0.06;100.00;95468.16;5088933;28;20231;-79
2022/01/27 08:05:45;;;;;;;23.50;12.63;;;;;;;0.15;100.00;95466.56;5089378;28;20296;-76
2022/01/27 08:08:13;;;;;;;23.63;13.60;;;;;;;0.11;100.00;95470.34;5077124;28;20244;-82
2022/01/27 08:10:40;;;;;;;29.67;15.20;;;;;;;0.15;100.00;95474.22;5090564;28;20436;-76
2022/01/27 08:13:09;;;;;;;26.17;13.60;;;;;;;0.05;100.00;95469.13;5089538;28;20299;-76
2022/01/27 08:15:37;;;;;;;23.17;13.53;;;;;;;0.02;100.00;95471.13;5089838;28;20204;-80
2022/01/27 08:18:05;;;;;;;29.00;16.13;;;;;;;0.00;100.00;95479.72;5087771;28;20207;-75
2022/01/27 08:20:33;;;;;;;33.73;17.73;;;;;;;0.10;100.00;95471.28;5085468;28;20652;-75
2022/01/27 08:23:00;;;;;;;29.87;16.17;;;;;;;0.17;100.00;95475.72;5079867;28;20197;-80
2022/01/27 08:25:27;;;;;;;23.40;13.50;;;;;;;0.19;100.00;95481.50;5082396;28;20283;-76
2022/01/27 08:27:57;;;;;;;23.50;13.47;;;;;;;0.07;100.00;95464.69;5089563;28;20205;-77
2022/01/27 08:30:27;;;;;;;30.57;16.83;;;;;;;0.15;100.00;95479.34;5088947;28;20205;-78
2022/01/27 08:33:04;;;;;;;33.43;17.03;;;;;;;0.18;100.00;95482.44;5085659;28;20254;-75
2022/01/27 08:35:31;;;;;;;26.37;15.33;;;;;;;0.28;100.00;95480.72;5062250;28;20498;-76
2022/01/27 08:37:59;;;;;;;29.93;14.70;;;;;;;0.18;100.00;95477.31;5083696;28;20200;-76
2022/01/27 08:40:26;;;;;;;28.30;15.37;;;;;;;0.14;100.00;95486.22;5085582;28;20596;-76
2022/01/27 08:42:53;;;;;;;30.37;16.53;;;;;;;0.16;100.00;95483.50;5075117;28;20206;-77
2022/01/27 08:45:23;;;;;;;32.77;16.93;;;;;;;0.25;100.00;95488.63;5085921;28;20219;-76
2022/01/27 08:47:51;;;;;;;33.50;15.87;;;;;;;0.22;100.00;95494.03;5082499;28;20209;-77
2022/01/27 08:50:24;;;;;;;30.07;16.50;;;;;;;0.28;100.00;95490.94;5089202;28;20197;-76
2022/01/27 08:52:52;;;;;;;24.40;13.53;;;;;;;0.17;100.00;95480.84;5088654;28;20228;-76
2022/01/27 08:55:20;;;;;;;26.50;14.60;;;;;;;0.15;100.00;95494.66;5089093;28;20196;-74
2022/01/27 08:57:47;;;;;;;24.43;13.53;;;;;;;0.13;100.00;95491.44;5089601;28;20205;-76
2022/01/27 09:00:16;;;;;;;27.93;15.70;;;;;;;0.22;100.00;95496.56;5085711;28;20788;-77
2022/01/27 09:02:43;;;;;;;32.77;16.53;;;;;;;0.26;100.00;95500.47;5076004;28;20206;-75
2022/01/27 09:05:11;;;;;;;27.77;15.97;;;;;;;0.35;100.00;95496.28;5085866;28;20213;-75
2022/01/27 09:07:39;;;;;;;29.60;16.67;;;;;;;0.39;100.00;95501.00;5089378;28;20244;-76
2022/01/27 09:10:07;;;;;;;31.23;15.87;;;;;;;0.32;100.00;95491.44;5089694;28;20254;-76
2022/01/27 09:12:35;;;;;;;28.73;15.97;;;;;;;0.38;100.00;95496.03;5089201;28;20280;-77
2022/01/27 09:15:04;;;;;;;29.90;15.80;;;;;;;0.52;100.00;95501.53;5088827;28;20270;-76
2022/01/27 09:17:38;;;;;;;20.00;11.73;;;;;;;0.54;100.00;95498.84;5079726;28;20204;-77
2022/01/27 09:20:08;;;;;;;26.23;14.33;;;;;;;0.40;100.00;95502.63;5089255;28;20259;-75
2022/01/27 09:22:36;;;;;;;28.10;16.03;;;;;;;0.46;100.00;95499.50;5085411;28;20201;-76
2022/01/27 09:25:13;;;;;;;29.17;16.00;;;;;;;0.56;100.00;95491.84;5088396;28;20204;-75
2022/01/27 09:27:42;;;;;;;21.77;12.20;;;;;;;0.71;100.00;95487.94;5088520;28;20361;-75
2022/01/27 09:30:12;;;;;;;24.87;14.20;;;;;;;0.74;100.00;95487.66;5089370;28;20209;-76
2022/01/27 09:32:40;;;;;;;25.37;14.47;;;;;;;0.82;100.00;95487.78;5070103;28;20205;-76
2022/01/27 09:35:08;;;;;;;34.77;18.73;;;;;;;0.94;100.00;95489.22;5087911;28;20232;-76
2022/01/27 09:37:35;;;;;;;28.00;14.60;;;;;;;0.91;100.00;95478.47;5079895;28;20606;-77
2022/01/27 09:40:07;;;;;;;22.43;12.70;;;;;;;0.75;100.00;95476.47;5082161;28;20224;-76
2022/01/27 09:42:37;;;;;;;26.10;13.80;;;;;;;0.55;100.00;95460.34;5089163;28;20216;-76
2022/01/27 09:45:08;;;;;;;32.50;17.30;;;;;;;0.77;100.00;95464.38;5088722;28;20203;-76
2022/01/27 09:47:40;;;;;;;29.37;16.47;;;;;;;0.84;100.00;95467.97;5082457;28;20933;-75
2022/01/27 09:50:22;;;;;;;31.53;17.73;;;;;;;0.86;100.00;95475.50;5088584;28;20200;-76
2022/01/27 09:52:50;;;;;;;29.33;16.60;;;;;;;0.87;100.00;95467.69;5088113;28;20624;-77
2022/01/27 09:55:20;;;;;;;34.23;16.87;;;;;;;1.05;100.00;95472.91;5088276;28;20201;-77
2022/01/27 09:57:47;;;;;;;26.73;14.63;;;;;;;1.00;100.00;95478.44;5088242;28;20296;-76
2022/01/27 10:00:15;;;;;;;26.07;13.73;;;;;;;0.99;100.00;95481.13;5088306;28;20667;-76
2022/01/27 10:03:07;;;;;;;26.03;14.37;;;;;;;0.90;100.00;95480.19;5088556;28;20202;-76
2022/01/27 10:05:37;;;;;;;28.40;15.03;;;;;;;0.89;100.00;95459.88;5087865;28;20205;-77
2022/01/27 10:08:09;;;;;;;25.73;14.10;;;;;;;0.95;100.00;95477.25;5088607;28;20201;-77
2022/01/27 10:10:41;;;;;;;24.60;14.10;;;;;;;0.75;100.00;95476.47;5089375;28;20188;-79
2022/01/27 10:13:11;;;;;;;24.60;12.73;;;;;;;0.73;100.00;95478.34;5088901;28;20598;-75
2022/01/27 10:15:42;;;;;;;27.37;14.20;;;;;;;0.74;100.00;95471.50;5088258;28;20292;-78
2022/01/27 10:18:14;;;;;;;24.87;13.23;;;;;;;0.88;100.00;95473.63;5087113;28;20316;-77
2022/01/27 10:20:45;;;;;;;21.47;13.07;;;;;;;1.20;99.09;95471.50;5079965;28;20224;-79
2022/01/27 10:23:19;;;;;;;25.50;14.70;;;;;;;1.43;96.67;95475.31;5085495;28;20189;-77
2022/01/27 10:25:53;;;;;;;25.77;15.40;;;;;;;1.67;95.39;95472.22;5088405;28;20219;-77
2022/01/27 10:28:32;;;;;;;28.57;15.53;;;;;;;1.95;94.09;95475.56;5088828;28;20311;-78
2022/01/27 10:31:09;;;;;;;25.23;14.90;;;;;;;2.00;92.88;95475.94;5088649;28;20286;-78
2022/01/27 10:33:45;;;;;;;18.43;11.37;;;;;;;1.85;91.64;95479.97;5089825;28;20234;-81
2022/01/27 10:36:21;;;;;;;19.20;11.80;;;;;;;1.82;91.61;95472.56;5088874;28;20216;-76
2022/01/27 10:38:52;;;;;;;18.00;11.63;;;;;;;1.97;91.69;95477.03;5082054;28;20207;-75
2022/01/27 10:41:22;;;;;;;18.03;10.80;;;;;;;2.26;89.78;95469.94;5087889;28;20232;-75
2022/01/27 10:43:52;;;;;;;19.60;12.03;;;;;;;2.75;88.28;95467.75;5081483;28;20210;-76
2022/01/27 10:46:26;;;;;;;23.73;13.20;;;;;;;3.27;85.64;95477.06;5085544;28;20847;-74
2022/01/27 10:49:01;;;;;;;23.60;13.50;;;;;;;3.37;83.28;95467.50;5087132;28;20196;-75
2022/01/27 10:51:30;;;;;;;18.73;10.50;;;;;;;3.00;83.86;95463.59;5079005;28;20274;-75
2022/01/27 10:54:04;;;;;;;17.17;9.50;;;;;;;2.78;84.58;95463.13;5080833;28;20212;-75
2022/01/27 10:56:36;;;;;;;19.40;11.63;;;;;;;2.72;86.16;95455.22;5079162;28;20290;-76
2022/01/27 10:59:06;;;;;;;17.90;10.90;;;;;;;2.71;86.65;95451.06;5087652;28;20235;-76
2022/01/27 11:01:39;;;;;;;19.80;11.80;;;;;;;2.74;86.89;95461.03;5087900;28;20710;-75
2022/01/27 11:04:09;;;;;;;19.73;10.80;;;;;;;2.46;84.72;95450.06;5087531;28;20736;-76
2022/01/27 11:06:39;;;;;;;20.77;12.27;;;;;;;2.31;86.41;95448.19;5087785;28;20587;-76
2022/01/27 11:09:09;;;;;;;22.33;12.37;;;;;;;2.42;87.01;95447.94;5088071;28;20201;-75
2022/01/27 11:11:40;;;;;;;21.07;13.03;;;;;;;2.62;86.79;95452.75;5089989;28;20219;-75
2022/01/27 11:14:08;;;;;;;24.07;13.47;;;;;;;2.99;85.19;95444.00;5091831;28;20262;-75
2022/01/27 11:16:39;;;;;;;20.77;12.20;;;;;;;3.19;82.64;95435.13;5090267;28;20215;-76
2022/01/27 11:19:41;;;;;;;15.33;9.40;;;;;;;3.10;80.62;95444.56;5091300;28;20291;-76
2022/01/27 11:22:24;;;;;;;17.47;10.43;;;;;;;2.95;81.26;95440.13;5085120;28;20729;-76
2022/01/27 11:25:08;;;;;;;13.57;8.47;;;;;;;2.88;81.23;95444.25;5091491;28;20210;-76
2022/01/27 11:27:40;;;;;;;15.07;9.37;;;;;;;3.99;77.18;95452.56;5087190;28;20208;-76
2022/01/27 11:30:12;;;;;;;10.63;7.00;;;;;;;4.55;71.72;95449.25;5084804;28;20200;-75
2022/01/27 11:32:43;;;;;;;10.47;6.63;;;;;;;4.27;72.49;95433.31;5091543;28;20683;-75
2022/01/27 11:35:21;;;;;;;10.93;7.60;;;;;;;4.39;72.76;95434.63;5090647;28;20243;-76
2022/01/27 11:37:52;;;;;;;11.70;8.20;;;;;;;4.56;72.47;95435.41;5090987;28;20615;-75
2022/01/27 11:40:23;;;;;;;15.73;9.57;;;;;;;4.18;72.63;95434.31;5091612;28;20204;-75
2022/01/27 11:43:07;;;;;;;15.37;9.37;;;;;;;4.40;72.75;95435.44;5092199;28;20289;-77
2022/01/27 11:45:39;;;;;;;15.63;9.60;;;;;;;5.44;70.72;95426.72;5087182;28;20646;-76
2022/01/27 11:48:10;;;;;;;18.97;9.67;;;;;;;5.76;67.43;95430.91;5063199;28;20245;-79
2022/01/27 11:50:49;;;;;;;14.50;9.90;;;;;;;5.62;69.18;95436.78;5089539;28;20197;-77
2022/01/27 11:53:33;;;;;;;14.93;9.30;;;;;;;6.11;66.79;95430.44;5075474;28;20209;-76
2022/01/27 11:56:02;;;;;;;14.93;10.00;;;;;;;6.07;66.69;95425.75;5086959;28;20271;-77
2022/01/27 11:58:32;;;;;;;17.27;9.37;;;;;;;6.24;65.36;95425.50;5084696;28;20203;-76
2022/01/27 12:01:21;;;;;;;13.63;9.07;;;;;;;6.01;64.87;95429.03;5080035;28;20222;-77
2022/01/27 12:04:15;;;;;;;12.50;7.97;;;;;;;5.77;65.00;95429.97;5083949;28;20205;-76
2022/01/27 12:06:59;;;;;;;16.30;9.10;;;;;;;6.81;62.60;95425.06;5085506;28;20213;-76